createdAt,value
2019-03-12T00:01:14.254Z,101695.44
2019-03-12T00:04:20.111Z,101700.05
2019-03-12T00:07:25.674Z,101698.52
2019-03-12T00:10:30.579Z,101705.21
2019-03-12T00:13:35.596Z,101702.23
2019-03-12T00:16:40.251Z,101708.53
2019-03-12T00:19:44.848Z,101709.67
2019-03-12T00:22:51.150Z,101708.23
2019-03-12T00:25:55.493Z,101707.84
2019-03-12T00:28:59.932Z,101710.99
2019-03-12T00:32:06.232Z,101709.29
2019-03-12T00:35:12.644Z,101716.91
2019-03-12T00:38:17.232Z,101714.53
2019-03-12T00:41:21.997Z,101725.59
2019-03-12T00:44:26.534Z,101721.48
2019-03-12T00:47:31.018Z,101724.80
2019-03-12T00:50:35.509Z,101725.55
2019-03-12T00:53:39.930Z,101728.48
2019-03-12T00:56:44.646Z,101724.63
2019-03-12T00:59:49.018Z,101722.01
2019-03-12T01:02:53.510Z,101716.48
2019-03-12T01:05:58.059Z,101720.84
2019-03-12T01:09:02.727Z,101717.34
2019-03-12T01:12:07.285Z,101716.23
2019-03-12T01:15:12.770Z,101709.84
2019-03-12T01:18:17.178Z,101703.88
2019-03-12T01:21:21.559Z,101696.19
2019-03-12T01:24:25.931Z,101696.39
2019-03-12T01:27:32.340Z,101693.30
2019-03-12T01:30:36.724Z,101692.04
2019-03-12T01:33:41.603Z,101689.17
2019-03-12T01:36:46.051Z,101684.72
2019-03-12T01:39:50.564Z,101681.24
2019-03-12T01:42:55.118Z,101684.63
2019-03-12T01:45:59.495Z,101674.44
2019-03-12T01:49:03.915Z,101680.09
2019-03-12T01:52:08.356Z,101677.45
2019-03-12T01:55:12.783Z,101673.27
2019-03-12T01:58:18.813Z,101663.51
2019-03-12T02:01:23.360Z,101665.34
2019-03-12T02:04:32.599Z,101666.06
2019-03-12T02:07:37.063Z,101661.34
2019-03-12T02:10:41.487Z,101662.30
2019-03-12T02:13:45.928Z,101653.11
2019-03-12T02:16:50.466Z,101654.55
2019-03-12T02:19:54.914Z,101647.74
2019-03-12T02:22:59.317Z,101630.31
2019-03-12T02:26:03.930Z,101629.78
2019-03-12T02:29:08.595Z,101625.77
2019-03-12T02:32:13.044Z,101616.83
2019-03-12T02:35:17.594Z,101607.98
2019-03-12T02:38:22.354Z,101608.06
2019-03-12T02:41:28.235Z,101603.13
2019-03-12T02:44:32.798Z,101611.61
2019-03-12T02:47:37.603Z,101618.16
2019-03-12T02:50:48.006Z,101610.11
2019-03-12T02:53:52.344Z,101606.22
2019-03-12T02:56:56.893Z,101608.28
2019-03-12T03:00:01.624Z,101611.73
2019-03-12T03:03:06.023Z,101612.16
2019-03-12T03:06:25.163Z,101613.84
2019-03-12T03:09:29.510Z,101613.36
2019-03-12T03:12:34.093Z,101614.75
2019-03-12T03:15:42.826Z,101610.91
2019-03-12T03:18:47.309Z,101611.81
2019-03-12T03:21:51.878Z,101609.77
2019-03-12T03:25:02.278Z,101598.88
2019-03-12T03:28:06.805Z,101598.97
2019-03-12T03:31:14.456Z,101607.03
2019-03-12T03:34:18.862Z,101600.06
2019-03-12T03:37:23.350Z,101600.35
2019-03-12T03:40:27.882Z,101605.20
2019-03-12T03:43:32.628Z,101603.95
2019-03-12T03:46:36.998Z,101601.39
2019-03-12T03:49:41.348Z,101590.58
2019-03-12T03:52:54.933Z,101591.23
2019-03-12T03:55:59.332Z,101583.82
2019-03-12T03:59:03.962Z,101592.48
2019-03-12T04:02:11.085Z,101588.61
2019-03-12T04:05:18.421Z,101575.80
2019-03-12T04:08:23.317Z,101572.77
2019-03-12T04:11:27.719Z,101570.70
2019-03-12T04:14:32.115Z,101561.65
2019-03-12T04:17:36.629Z,101556.03
2019-03-12T04:20:41.188Z,101556.66
2019-03-12T04:23:45.697Z,101549.19
2019-03-12T04:26:52.215Z,101546.02
2019-03-12T04:29:56.556Z,101538.07
2019-03-12T04:33:01.279Z,101533.34
2019-03-12T04:36:05.892Z,101538.31
2019-03-12T04:39:10.517Z,101536.47
2019-03-12T04:42:15.013Z,101539.09
2019-03-12T04:45:19.771Z,101537.28
2019-03-12T04:48:24.202Z,101529.37
2019-03-12T04:51:28.819Z,101517.11
2019-03-12T04:54:33.299Z,101517.86
2019-03-12T04:57:37.781Z,101516.55
2019-03-12T05:00:42.345Z,101514.75
2019-03-12T05:03:46.823Z,101503.66
2019-03-12T05:06:53.089Z,101504.87
2019-03-12T05:10:15.627Z,101505.03
2019-03-12T05:13:19.989Z,101495.39
2019-03-12T05:16:24.699Z,101489.28
2019-03-12T05:19:29.888Z,101488.89
2019-03-12T05:22:34.457Z,101478.23
2019-03-12T05:25:39.071Z,101480.95
2019-03-12T05:28:47.798Z,101473.11
2019-03-12T05:31:52.542Z,101475.79
2019-03-12T05:34:59.648Z,101476.63
2019-03-12T05:38:08.331Z,101477.27
2019-03-12T05:41:15.550Z,101475.95
2019-03-12T05:44:25.982Z,101475.83
2019-03-12T05:47:30.480Z,101471.06
2019-03-12T05:50:35.055Z,101463.31
2019-03-12T05:53:47.752Z,101461.48
2019-03-12T05:56:57.996Z,101457.58
2019-03-12T06:00:02.426Z,101453.76
2019-03-12T06:03:07.066Z,101457.31
2019-03-12T06:06:11.606Z,101449.78
2019-03-12T06:09:16.081Z,101445.58
2019-03-12T06:12:20.539Z,101443.07
2019-03-12T06:15:24.814Z,101444.38
2019-03-12T06:18:29.182Z,101432.34
2019-03-12T06:21:33.710Z,101429.52
2019-03-12T06:24:38.002Z,101432.66
2019-03-12T06:27:42.497Z,101445.89
2019-03-12T06:31:15.060Z,101436.87
2019-03-12T06:34:41.458Z,101440.09
2019-03-12T06:38:10.706Z,101433.35
2019-03-12T06:41:33.116Z,101429.77
2019-03-12T06:44:59.262Z,101427.31
2019-03-12T06:48:21.769Z,101414.72
2019-03-12T06:52:03.404Z,101410.16
2019-03-12T06:55:27.003Z,101408.98
2019-03-12T06:58:53.210Z,101396.33
2019-03-12T07:02:13.213Z,101390.32
2019-03-12T07:05:35.153Z,101396.05
2019-03-12T07:08:52.126Z,101393.05
2019-03-12T07:12:00.333Z,101385.46
2019-03-12T07:15:27.216Z,101368.02
2019-03-12T07:18:59.667Z,101362.69
2019-03-12T07:22:31.953Z,101355.77
2019-03-12T07:26:01.369Z,101340.77
2019-03-12T07:29:23.602Z,101340.09
2019-03-12T07:32:45.599Z,101342.31
2019-03-12T07:36:04.766Z,101334.78
2019-03-12T07:39:28.370Z,101331.94
2019-03-12T07:42:37.841Z,101326.73
2019-03-12T07:46:13.572Z,101318.26
2019-03-12T07:49:30.265Z,101310.80
2019-03-12T07:52:56.601Z,101308.16
2019-03-12T07:56:13.310Z,101298.58
2019-03-12T07:59:48.962Z,101289.47
2019-03-12T08:03:11.004Z,101275.08
2019-03-12T08:06:46.628Z,101274.23
2019-03-12T08:10:01.771Z,101273.38
2019-03-12T08:13:30.946Z,101256.84
2019-03-12T08:16:53.568Z,101253.45
2019-03-12T08:20:23.286Z,101245.18
2019-03-12T08:23:36.349Z,101239.06
2019-03-12T08:26:52.378Z,101230.73
2019-03-12T08:30:18.034Z,101231.60
2019-03-12T08:33:35.280Z,101222.83
2019-03-12T08:36:51.408Z,101221.92
2019-03-12T08:40:17.759Z,101211.86
2019-03-12T08:43:41.958Z,101214.05
2019-03-12T08:47:13.376Z,101210.54
2019-03-12T08:50:44.004Z,101196.49
2019-03-12T08:54:25.745Z,101190.38
2019-03-12T08:57:53.633Z,101178.05
2019-03-12T09:01:09.385Z,101170.17
2019-03-12T09:04:36.529Z,101162.64
2019-03-12T09:08:06.456Z,101157.00
2019-03-12T09:11:38.454Z,101145.10
2019-03-12T09:15:20.282Z,101136.80
2019-03-12T09:18:43.589Z,101125.34
2019-03-12T09:22:06.897Z,101118.32
2019-03-12T09:25:27.219Z,101120.98
2019-03-12T09:28:40.790Z,101118.78
2019-03-12T09:31:56.701Z,101098.58
2019-03-12T09:35:08.410Z,101094.64
2019-03-12T09:38:40.224Z,101082.78
2019-03-12T09:42:00.709Z,101075.33
2019-03-12T09:45:23.743Z,101062.57
2019-03-12T09:48:43.943Z,101051.14
2019-03-12T09:52:00.298Z,101041.47
2019-03-12T09:55:20.883Z,101033.13
2019-03-12T09:58:47.662Z,101024.78
2019-03-12T10:02:16.897Z,101012.01
2019-03-12T10:05:44.211Z,101002.34
2019-03-12T10:09:06.524Z,100997.52
2019-03-12T10:12:29.787Z,100995.78
2019-03-12T10:15:58.970Z,100993.13
2019-03-12T10:19:28.489Z,100971.98
2019-03-12T10:23:04.645Z,100967.60
2019-03-12T10:26:24.591Z,100962.31
2019-03-12T10:29:44.788Z,100953.13
2019-03-12T10:33:08.099Z,100936.86
2019-03-12T10:36:19.362Z,100933.31
2019-03-12T10:40:18.885Z,100923.61
2019-03-12T10:43:35.659Z,100911.79
2019-03-12T10:46:44.387Z,100907.39
2019-03-12T10:49:48.665Z,100903.45
2019-03-12T10:52:52.949Z,100893.80
2019-03-12T10:55:57.331Z,100886.34
2019-03-12T10:59:01.660Z,100883.73
2019-03-12T11:02:06.135Z,100876.69
2019-03-12T11:05:13.651Z,100865.75
2019-03-12T11:08:18.158Z,100856.95
2019-03-12T11:11:22.736Z,100854.74
2019-03-12T11:14:27.126Z,100841.11
2019-03-12T11:17:31.705Z,100833.61
2019-03-12T11:20:37.786Z,100836.70
2019-03-12T11:23:42.205Z,100820.95
2019-03-12T11:26:46.823Z,100819.62
2019-03-12T11:29:51.474Z,100817.44
2019-03-12T11:32:55.827Z,100810.40
2019-03-12T11:36:01.941Z,100811.75
2019-03-12T11:39:10.055Z,100810.42
2019-03-12T11:42:15.157Z,100798.23
2019-03-12T11:45:25.751Z,100784.64
2019-03-12T11:48:26.005Z,100782.91
2019-03-12T11:51:30.341Z,100781.55
2019-03-12T11:54:34.599Z,100762.23
2019-03-12T11:57:38.865Z,100756.48
2019-03-12T12:00:48.637Z,100759.56
2019-03-12T12:03:52.929Z,100736.29
2019-03-12T12:06:57.470Z,100723.99
2019-03-12T12:10:02.385Z,100708.71
2019-03-12T12:13:07.130Z,100686.31
2019-03-12T12:16:14.796Z,100656.41
2019-03-12T12:19:28.338Z,100655.56
2019-03-12T12:22:32.908Z,100638.84
2019-03-12T12:25:37.267Z,100629.23
2019-03-12T12:28:41.709Z,100612.06
2019-03-12T12:31:47.499Z,100605.47
2019-03-12T12:34:52.217Z,100588.81
2019-03-12T12:37:56.803Z,100569.43
2019-03-12T12:41:01.203Z,100567.34
2019-03-12T12:44:07.957Z,100565.60
2019-03-12T12:47:12.041Z,100555.31
2019-03-12T12:50:17.113Z,100552.15
2019-03-12T12:53:21.733Z,100546.88
2019-03-12T12:56:26.159Z,100546.04
2019-03-12T12:59:30.946Z,100538.22
2019-03-12T13:02:35.653Z,100534.19
2019-03-12T13:05:40.099Z,100529.83
2019-03-12T13:08:44.576Z,100525.89
2019-03-12T13:11:49.137Z,100507.51
2019-03-12T13:14:54.446Z,100506.09
2019-03-12T13:17:59.403Z,100490.38
2019-03-12T13:21:03.944Z,100489.00
2019-03-12T13:24:08.296Z,100485.63
2019-03-12T13:27:12.694Z,100470.71
2019-03-12T13:30:18.659Z,100468.03
2019-03-12T13:33:23.311Z,100457.11
2019-03-12T13:36:27.975Z,100437.30
2019-03-12T13:39:34.639Z,100438.55
2019-03-12T13:42:39.420Z,100418.43
2019-03-12T13:45:47.356Z,100421.03
2019-03-12T13:48:51.923Z,100409.97
2019-03-12T13:51:56.412Z,100419.66
2019-03-12T13:55:02.543Z,100391.23
2019-03-12T13:58:07.411Z,100385.90
2019-03-12T14:01:12.044Z,100373.58
2019-03-12T14:04:16.430Z,100368.75
2019-03-12T14:07:22.539Z,100363.88
2019-03-12T14:10:26.879Z,100345.11
2019-03-12T14:13:31.369Z,100338.93
2019-03-12T14:16:35.775Z,100324.52
2019-03-12T14:19:41.796Z,100331.05
2019-03-12T14:22:46.302Z,100318.75
2019-03-12T14:25:53.699Z,100318.28
2019-03-12T14:28:58.052Z,100301.50
2019-03-12T14:32:02.522Z,100294.06
2019-03-12T14:35:07.550Z,100283.06
2019-03-12T14:38:12.520Z,100277.92
2019-03-12T14:41:16.899Z,100271.20
2019-03-12T14:44:21.673Z,100267.09
2019-03-12T14:47:29.371Z,100263.95
2019-03-12T14:50:33.720Z,100243.44
2019-03-12T14:53:38.318Z,100232.81
2019-03-12T14:56:42.745Z,100222.55
2019-03-12T14:59:47.157Z,100223.83
2019-03-12T15:02:52.049Z,100214.98
2019-03-12T15:05:56.474Z,100197.65
2019-03-12T15:09:00.806Z,100189.63
2019-03-12T15:12:06.857Z,100173.22
2019-03-12T15:15:11.739Z,100165.03
2019-03-12T15:18:16.150Z,100152.00
2019-03-12T15:21:20.546Z,100150.81
2019-03-12T15:24:25.227Z,100140.95
2019-03-12T15:27:29.727Z,100140.17
2019-03-12T15:30:34.257Z,100132.56
2019-03-12T15:33:38.634Z,100123.50
2019-03-12T15:36:45.750Z,100107.45
2019-03-12T15:39:50.117Z,100104.03
2019-03-12T15:42:54.589Z,100086.73
2019-03-12T15:45:59.145Z,100069.83
2019-03-12T15:49:03.558Z,100056.05
2019-03-12T15:52:08.248Z,100048.52
2019-03-12T15:55:13.477Z,100037.83
2019-03-12T15:58:17.847Z,100034.59
2019-03-12T16:01:22.700Z,100021.13
2019-03-12T16:04:27.172Z,100007.44
2019-03-12T16:07:31.737Z,100007.30
2019-03-12T16:10:36.426Z,99978.77
2019-03-12T16:13:43.089Z,99972.91
2019-03-12T16:16:48.519Z,99963.21
2019-03-12T16:19:52.973Z,99952.78
2019-03-12T16:23:01.205Z,99939.45
2019-03-12T16:26:05.619Z,99940.29
2019-03-12T16:29:10.385Z,99927.14
2019-03-12T16:32:15.117Z,99922.58
2019-03-12T16:35:19.519Z,99903.65
2019-03-12T16:38:27.156Z,99901.33
2019-03-12T16:41:31.464Z,99884.84
2019-03-12T16:44:42.080Z,99875.17
2019-03-12T16:48:17.314Z,99872.63
2019-03-12T16:51:21.940Z,99867.39
2019-03-12T16:54:26.525Z,99861.64
2019-03-12T16:57:35.502Z,99852.50
2019-03-12T17:00:43.526Z,99844.80
2019-03-12T17:03:48.056Z,99837.42
2019-03-12T17:06:52.513Z,99827.44
2019-03-12T17:09:57.009Z,99839.80
2019-03-12T17:13:02.696Z,99824.85
2019-03-12T17:16:07.329Z,99810.30
2019-03-12T17:19:11.833Z,99814.88
2019-03-12T17:22:18.114Z,99798.71
2019-03-12T17:25:22.531Z,99798.58
2019-03-12T17:28:27.021Z,99788.67
2019-03-12T17:31:31.518Z,99779.05
2019-03-12T17:34:37.390Z,99766.36
2019-03-12T17:37:41.912Z,99757.47
2019-03-12T17:40:46.465Z,99743.26
2019-03-12T17:43:50.986Z,99752.14
2019-03-12T17:46:55.338Z,99739.50
2019-03-12T17:49:59.962Z,99726.02
2019-03-12T17:53:16.883Z,99723.23
2019-03-12T17:56:21.352Z,99700.44
2019-03-12T17:59:25.940Z,99701.32
2019-03-12T18:02:42.130Z,99703.17
2019-03-12T18:05:36.984Z,99674.52
2019-03-12T18:08:41.401Z,99673.68
2019-03-12T18:11:46.057Z,99663.86
2019-03-12T18:14:56.597Z,99652.08
2019-03-12T18:18:02.766Z,99649.46
2019-03-12T18:21:09.017Z,99652.30
2019-03-12T18:24:13.581Z,99658.08
2019-03-12T18:27:17.982Z,99636.38
2019-03-12T18:30:26.133Z,99631.81
2019-03-12T18:33:33.312Z,99627.09
2019-03-12T18:36:37.854Z,99637.45
2019-03-12T18:39:42.298Z,99624.30
2019-03-12T18:42:47.030Z,99628.63
2019-03-12T18:45:51.434Z,99632.38
2019-03-12T18:48:57.845Z,99610.22
2019-03-12T18:52:02.449Z,99600.08
2019-03-12T18:55:07.954Z,99595.02
2019-03-12T18:58:13.223Z,99579.70
2019-03-12T19:01:32.199Z,99578.77
2019-03-12T19:04:36.771Z,99567.44
2019-03-12T19:07:42.155Z,99557.89
2019-03-12T19:10:46.545Z,99551.94
2019-03-12T19:13:51.130Z,99543.31
2019-03-12T19:16:55.804Z,99545.73
2019-03-12T19:20:04.854Z,99522.95
2019-03-12T19:23:12.224Z,99527.19
2019-03-12T19:26:16.972Z,99519.53
2019-03-12T19:29:21.893Z,99523.72
2019-03-12T19:32:42.691Z,99518.17
2019-03-12T19:35:47.788Z,99531.13
2019-03-12T19:38:52.461Z,99519.22
2019-03-12T19:41:57.081Z,99519.98
2019-03-12T19:45:04.956Z,99503.45
2019-03-12T19:48:09.875Z,99505.05
2019-03-12T19:51:14.989Z,99496.94
2019-03-12T19:54:20.189Z,99499.33
2019-03-12T19:57:27.028Z,99477.95
2019-03-12T20:00:32.218Z,99481.41
2019-03-12T20:03:37.206Z,99476.45
2019-03-12T20:06:45.133Z,99465.92
2019-03-12T20:10:10.991Z,99456.09
2019-03-12T20:14:01.533Z,99449.83
2019-03-12T20:17:45.858Z,99440.17
2019-03-12T20:21:26.230Z,99429.14
2019-03-12T20:25:14.393Z,99412.34
2019-03-12T20:28:53.589Z,99398.02
2019-03-12T20:32:32.638Z,99398.34
2019-03-12T20:36:29.477Z,99376.17
2019-03-12T20:40:12.201Z,99368.92
2019-03-12T20:43:56.906Z,99369.59
2019-03-12T20:47:47.704Z,99338.41
2019-03-12T20:51:29.162Z,99339.21
2019-03-12T20:55:29.348Z,99327.77
2019-03-12T20:59:13.731Z,99319.53
2019-03-12T21:03:12.722Z,99309.76
2019-03-12T21:07:13.919Z,99304.56
2019-03-12T21:11:07.414Z,99293.40
2019-03-12T21:14:41.542Z,99272.30
2019-03-12T21:18:22.610Z,99247.08
2019-03-12T21:22:25.816Z,99243.33
2019-03-12T21:26:05.182Z,99225.67
2019-03-12T21:29:48.801Z,99217.36
2019-03-12T21:32:53.631Z,99218.23
2019-03-12T21:35:58.405Z,99209.57
2019-03-12T21:39:03.554Z,99204.92
2019-03-12T21:42:08.873Z,99197.84
2019-03-12T21:45:14.219Z,99193.09
2019-03-12T21:48:18.758Z,99189.31
2019-03-12T21:51:26.031Z,99183.98
2019-03-12T21:54:31.002Z,99179.92
2019-03-12T21:57:35.447Z,99173.84
2019-03-12T22:00:39.965Z,99174.13
2019-03-12T22:03:45.636Z,99164.28
2019-03-12T22:06:50.149Z,99165.13
2019-03-12T22:09:54.598Z,99146.23
2019-03-12T22:13:05.342Z,99131.98
2019-03-12T22:16:05.555Z,99134.75
2019-03-12T22:19:09.912Z,99127.30
2019-03-12T22:22:23.400Z,99121.27
2019-03-12T22:25:27.886Z,99126.99
2019-03-12T22:28:32.227Z,99118.33
2019-03-12T22:31:36.589Z,99111.95
2019-03-12T22:34:41.115Z,99106.66
2019-03-12T22:37:45.423Z,99086.75
2019-03-12T22:40:51.446Z,99087.89
2019-03-12T22:43:55.816Z,99081.31
2019-03-12T22:47:00.176Z,99077.85
2019-03-12T22:50:04.573Z,99069.06
2019-03-12T22:53:09.691Z,99056.87
2019-03-12T22:56:14.113Z,99056.14
2019-03-12T22:59:18.949Z,99056.39
2019-03-12T23:02:23.377Z,99043.95
2019-03-12T23:05:29.797Z,99044.73
2019-03-12T23:08:41.441Z,99027.66
2019-03-12T23:11:59.108Z,99027.82
2019-03-12T23:15:04.222Z,99018.72
2019-03-12T23:18:11.096Z,99021.38
2019-03-12T23:21:17.700Z,99007.42
2019-03-12T23:24:24.387Z,98998.06
2019-03-12T23:27:30.796Z,98987.95
2019-03-12T23:30:53.431Z,98998.95
2019-03-12T23:34:01.520Z,98989.76
2019-03-12T23:37:08.368Z,98989.37
2019-03-12T23:40:16.018Z,99008.70
2019-03-12T23:43:22.764Z,98993.33
2019-03-12T23:46:29.191Z,99037.42
2019-03-12T23:49:36.390Z,99042.94
2019-03-12T23:52:43.368Z,99066.64
2019-03-12T23:55:50.295Z,99066.35
2019-03-12T23:58:56.598Z,99065.33
